Time;durP1;ratioP1;P1;durP2;ratioP2;P2;SDS_P1;SDS_P2;PMS_P1;PMS_P2;Temp;Humidity;BMP_temperature;BMP_pressure;BME280_temperature;BME280_humidity;BME280_pressure;Samples;Min_cycle;Max_cycle;Signal;HPM_P1;HPM_P2
2021/05/07 00:01:41;;;;;;;11.67;9.97;;;;;;;;;;5045560;28;20785;-77
2021/05/07 00:04:06;;;;;;;10.60;9.53;;;;;;;;;;5044539;28;20236;-77
2021/05/07 00:06:33;;;;;;;11.87;10.13;;;;;;;;;;5043812;28;20186;-78
2021/05/07 00:09:02;;;;;;;13.17;11.07;;;;;;;;;;5042934;28;20185;-77
2021/05/07 00:11:32;;;;;;;11.50;10.00;;;;;;;;;;5036713;28;20697;-80
2021/05/07 00:13:57;;;;;;;12.27;10.97;;;;;;;;;;5041292;28;20177;-77
2021/05/07 00:16:23;;;;;;;13.57;11.77;;;;;;;;;;5042376;28;20185;-80
2021/05/07 00:18:48;;;;;;;13.70;11.37;;;;;;;;;;5043779;28;20588;-79
2021/05/07 00:21:13;;;;;;;14.33;12.03;;;;;;;;;;5038004;28;20627;-77
2021/05/07 00:23:41;;;;;;;13.93;12.20;;;;;;;;;;5038371;28;20211;-79
2021/05/07 00:26:06;;;;;;;17.63;13.23;;;;;;;;;;5021196;28;20304;-76
2021/05/07 00:28:31;;;;;;;16.77;13.50;;;;;;;;;;5040383;28;20598;-79
2021/05/07 00:30:59;;;;;;;17.93;13.60;;;;;;;;;;5039646;28;20206;-80
2021/05/07 00:33:24;;;;;;;14.70;13.13;;;;;;;;;;5039553;28;20270;-79
2021/05/07 00:35:49;;;;;;;16.47;14.03;;;;;;;;;;5019660;28;20250;-81
2021/05/07 00:38:14;;;;;;;16.63;14.20;;;;;;;;;;5023769;28;20236;-78
2021/05/07 00:40:40;;;;;;;17.17;14.17;;;;;;;;;;5036965;28;20205;-79
2021/05/07 00:43:05;;;;;;;16.43;13.63;;;;;;;;;;5042684;28;20175;-77
2021/05/07 00:45:33;;;;;;;15.97;14.10;;;;;;;;;;5044255;28;20193;-78
2021/05/07 00:47:58;;;;;;;16.67;12.97;;;;;;;;;;5040635;28;20573;-77
2021/05/07 00:50:27;;;;;;;16.17;12.40;;;;;;;;;;5041342;28;20217;-77
2021/05/07 00:52:58;;;;;;;15.87;12.13;;;;;;;;;;5040787;28;20178;-77
2021/05/07 00:55:23;;;;;;;13.63;12.10;;;;;;;;;;5031218;28;20624;-79
2021/05/07 00:57:48;;;;;;;16.50;12.43;;;;;;;;;;5046694;28;20261;-78
2021/05/07 01:00:14;;;;;;;15.53;13.17;;;;;;;;;;5050640;28;20186;-76
2021/05/07 01:02:41;;;;;;;15.17;12.40;;;;;;;;;;5060968;28;20268;-77
2021/05/07 01:05:08;;;;;;;15.00;12.60;;;;;;;;;;5067446;28;20185;-77
2021/05/07 01:07:36;;;;;;;16.27;13.27;;;;;;;;;;5063979;28;20205;-77
2021/05/07 01:10:02;;;;;;;14.37;12.37;;;;;;;;;;5060077;28;20193;-77
2021/05/07 01:12:30;;;;;;;13.63;12.13;;;;;;;;;;5052539;28;20194;-78
2021/05/07 01:14:59;;;;;;;16.57;13.47;;;;;;;;;;5051386;28;20199;-78
2021/05/07 01:17:24;;;;;;;14.70;12.93;;;;;;;;;;5048193;28;20193;-77
2021/05/07 01:19:49;;;;;;;17.13;12.87;;;;;;;;;;5049370;28;20182;-78
2021/05/07 01:22:14;;;;;;;14.77;12.63;;;;;;;;;;5044818;28;20565;-76
2021/05/07 01:24:40;;;;;;;14.27;11.93;;;;;;;;;;5050505;28;20194;-79
2021/05/07 01:27:05;;;;;;;13.93;11.60;;;;;;;;;;5046253;28;20581;-77
2021/05/07 01:29:32;;;;;;;12.10;10.77;;;;;;;;;;5046933;28;20178;-77
2021/05/07 01:32:00;;;;;;;12.87;11.13;;;;;;;;;;5040805;28;20205;-80
2021/05/07 01:34:27;;;;;;;12.70;10.60;;;;;;;;;;5042427;28;20177;-78
2021/05/07 01:36:55;;;;;;;12.43;10.87;;;;;;;;;;5044515;28;20184;-79
2021/05/07 01:39:22;;;;;;;14.50;11.47;;;;;;;;;;5050222;28;20227;-78
2021/05/07 01:41:47;;;;;;;12.70;10.83;;;;;;;;;;5040922;28;20206;-78
2021/05/07 01:44:17;;;;;;;12.50;10.80;;;;;;;;;;5041479;28;20252;-79
2021/05/07 01:46:44;;;;;;;10.90;9.43;;;;;;;;;;5051170;28;20212;-76
2021/05/07 01:49:12;;;;;;;10.13;9.00;;;;;;;;;;5040495;28;20230;-78
2021/05/07 01:51:39;;;;;;;10.23;9.20;;;;;;;;;;5045260;28;20197;-79
2021/05/07 01:54:10;;;;;;;10.33;8.87;;;;;;;;;;5042599;28;20186;-80
2021/05/07 01:56:35;;;;;;;9.90;8.37;;;;;;;;;;5050774;28;20660;-78
2021/05/07 01:59:03;;;;;;;9.70;8.53;;;;;;;;;;5021237;28;20190;-79
2021/05/07 02:01:28;;;;;;;9.83;8.17;;;;;;;;;;5045104;28;20259;-79
2021/05/07 02:03:58;;;;;;;11.23;9.53;;;;;;;;;;5042490;28;20182;-79
2021/05/07 02:06:28;;;;;;;9.53;8.43;;;;;;;;;;5043425;28;20244;-80
2021/05/07 02:08:55;;;;;;;10.00;8.33;;;;;;;;;;5043659;28;20280;-78
2021/05/07 02:11:25;;;;;;;9.80;8.80;;;;;;;;;;5043378;28;20206;-79
2021/05/07 02:13:55;;;;;;;9.80;8.80;;;;;;;;;;5045065;28;20181;-79
2021/05/07 02:16:22;;;;;;;10.00;8.90;;;;;;;;;;5045206;28;20553;-77
2021/05/07 02:18:48;;;;;;;9.97;8.97;;;;;;;;;;5046058;28;20178;-78
2021/05/07 02:21:15;;;;;;;10.63;9.53;;;;;;;;;;5041337;28;20205;-80
2021/05/07 02:23:43;;;;;;;10.93;9.03;;;;;;;;;;5016764;28;20225;-79
2021/05/07 02:26:10;;;;;;;10.27;9.13;;;;;;;;;;5041135;28;20210;-80
2021/05/07 02:28:40;;;;;;;10.13;9.13;;;;;;;;;;5018330;28;20217;-80
2021/05/07 02:31:06;;;;;;;9.30;8.33;;;;;;;;;;5033207;28;20205;-77
2021/05/07 02:33:31;;;;;;;10.63;9.50;;;;;;;;;;5034067;28;20546;-78
2021/05/07 02:35:56;;;;;;;9.57;8.37;;;;;;;;;;5032177;28;20277;-75
2021/05/07 02:38:26;;;;;;;11.10;9.00;;;;;;;;;;5044071;28;20175;-79
2021/05/07 02:40:54;;;;;;;11.17;9.70;;;;;;;;;;5036888;28;20261;-77
2021/05/07 02:43:19;;;;;;;11.00;9.67;;;;;;;;;;5040572;28;20677;-79
2021/05/07 02:45:44;;;;;;;10.47;9.37;;;;;;;;;;5044578;28;20190;-78
2021/05/07 02:48:09;;;;;;;10.70;9.60;;;;;;;;;;5047355;28;20171;-77
2021/05/07 02:50:34;;;;;;;11.23;9.87;;;;;;;;;;5041316;28;20229;-77
2021/05/07 02:52:59;;;;;;;12.40;10.00;;;;;;;;;;5043484;28;20276;-76
2021/05/07 02:55:27;;;;;;;11.33;9.87;;;;;;;;;;5045649;28;20202;-76
2021/05/07 02:57:53;;;;;;;11.37;10.17;;;;;;;;;;5048816;28;20288;-77
2021/05/07 03:00:21;;;;;;;11.43;9.57;;;;;;;;;;5023126;28;20674;-75
2021/05/07 03:02:46;;;;;;;11.03;9.63;;;;;;;;;;5046105;28;20673;-75
2021/05/07 03:05:14;;;;;;;11.27;10.07;;;;;;;;;;5045967;28;20182;-77
2021/05/07 03:07:39;;;;;;;12.73;10.50;;;;;;;;;;5046385;28;20210;-75
2021/05/07 03:10:07;;;;;;;11.93;10.13;;;;;;;;;;5041422;28;20273;-77
2021/05/07 03:12:37;;;;;;;12.63;10.87;;;;;;;;;;5024755;28;20201;-77
2021/05/07 03:15:05;;;;;;;14.17;11.80;;;;;;;;;;5041047;28;20586;-78
2021/05/07 03:17:36;;;;;;;13.30;11.03;;;;;;;;;;5026034;28;20914;-77
2021/05/07 03:20:01;;;;;;;15.10;11.43;;;;;;;;;;5040753;28;20248;-82
2021/05/07 03:22:26;;;;;;;12.63;10.93;;;;;;;;;;5075761;23;20233;-53
2021/05/07 03:24:51;;;;;;;13.20;11.60;;;;;;;;;;5077392;28;20269;-52
2021/05/07 03:27:17;;;;;;;10.83;9.57;;;;;;;;;;5080095;28;20193;-55
2021/05/07 03:29:43;;;;;;;10.80;9.67;;;;;;;;;;5059324;28;20204;-55
2021/05/07 03:32:10;;;;;;;8.67;7.57;;;;;;;;;;5081971;28;20263;-55
2021/05/07 03:34:37;;;;;;;9.23;8.10;;;;;;;;;;5084060;28;20223;-53
2021/05/07 03:37:03;;;;;;;9.63;8.63;;;;;;;;;;5063006;28;20264;-54
2021/05/07 03:39:28;;;;;;;8.73;7.17;;;;;;;;;;5081399;28;20800;-52
2021/05/07 03:41:53;;;;;;;7.97;7.17;;;;;;;;;;5068045;28;20184;-53
2021/05/07 03:44:18;;;;;;;7.47;6.70;;;;;;;;;;5089718;28;20816;-56
2021/05/07 03:46:43;;;;;;;7.97;6.53;;;;;;;;;;5083468;28;20261;-52
2021/05/07 03:49:09;;;;;;;7.87;7.07;;;;;;;;;;5069792;28;20602;-54
2021/05/07 03:51:34;;;;;;;8.13;6.90;;;;;;;;;;5068310;28;20196;-53
2021/05/07 03:53:59;;;;;;;7.27;6.57;;;;;;;;;;5087433;28;20180;-53
2021/05/07 03:56:24;;;;;;;6.00;5.40;;;;;;;;;;5082631;28;20184;-55
2021/05/07 03:58:49;;;;;;;6.97;5.97;;;;;;;;;;5082397;28;20192;-53
2021/05/07 04:01:15;;;;;;;5.70;5.10;;;;;;;;;;5075263;28;20208;-54
2021/05/07 04:03:40;;;;;;;5.10;4.60;;;;;;;;;;5085129;28;20785;-54
2021/05/07 04:06:07;;;;;;;6.33;4.40;;;;;;;;;;5080745;28;20200;-53
2021/05/07 04:08:36;;;;;;;4.10;3.70;;;;;;;;;;5076567;28;20169;-51
2021/05/07 04:11:28;;;;;;;4.37;3.93;;;;;;;;;;5075179;28;20784;-52
2021/05/07 04:13:46;;;;;;;4.70;4.00;;;;;;;;;;5079800;28;20185;-53
2021/05/07 04:16:11;;;;;;;4.47;4.03;;;;;;;;;;5083750;28;20177;-53
2021/05/07 04:18:38;;;;;;;5.10;4.60;;;;;;;;;;5086562;28;20188;-52
2021/05/07 04:21:03;;;;;;;4.80;4.30;;;;;;;;;;5087269;28;20227;-54
2021/05/07 04:23:28;;;;;;;5.57;4.30;;;;;;;;;;5084770;28;20657;-53
2021/05/07 04:25:54;;;;;;;4.93;4.27;;;;;;;;;;5085113;28;20198;-54
2021/05/07 04:28:19;;;;;;;4.67;3.97;;;;;;;;;;5087031;28;20173;-54
2021/05/07 04:30:45;;;;;;;4.37;3.97;;;;;;;;;;5065617;28;20196;-53
2021/05/07 04:33:10;;;;;;;4.03;3.40;;;;;;;;;;5068154;28;20584;-52
2021/05/07 04:35:35;;;;;;;3.53;3.23;;;;;;;;;;5070286;28;20191;-54
2021/05/07 04:38:01;;;;;;;3.57;2.90;;;;;;;;;;5058339;28;20265;-55
2021/05/07 04:40:26;;;;;;;3.33;2.93;;;;;;;;;;5089120;28;20557;-56
2021/05/07 04:42:51;;;;;;;3.57;3.07;;;;;;;;;;5065156;28;20268;-54
2021/05/07 04:45:17;;;;;;;3.57;3.10;;;;;;;;;;5087223;28;20173;-52
2021/05/07 04:47:42;;;;;;;3.57;3.27;;;;;;;;;;5088895;28;20257;-52
2021/05/07 04:50:08;;;;;;;3.37;3.07;;;;;;;;;;5088403;28;20207;-53
2021/05/07 04:52:33;;;;;;;3.30;2.90;;;;;;;;;;5085210;28;20173;-52
2021/05/07 04:54:59;;;;;;;2.90;2.70;;;;;;;;;;5071872;28;20181;-52
2021/05/07 04:57:28;;;;;;;3.73;2.80;;;;;;;;;;5090219;28;20624;-52
2021/05/07 04:59:53;;;;;;;3.63;2.83;;;;;;;;;;5090671;28;20197;-54
2021/05/07 05:02:18;;;;;;;3.10;2.80;;;;;;;;;;5082888;28;20177;-54
2021/05/07 05:04:43;;;;;;;2.40;2.20;;;;;;;;;;5090311;28;20235;-55
2021/05/07 05:07:09;;;;;;;3.67;2.87;;;;;;;;;;5075428;28;20204;-53
2021/05/07 05:09:34;;;;;;;3.30;2.60;;;;;;;;;;5085461;28;20227;-52
2021/05/07 05:11:59;;;;;;;3.73;3.00;;;;;;;;;;5081744;28;20188;-55
2021/05/07 05:14:24;;;;;;;3.00;2.70;;;;;;;;;;5088778;28;20176;-56
2021/05/07 05:16:50;;;;;;;3.37;2.93;;;;;;;;;;5093425;28;20168;-54
2021/05/07 05:19:15;;;;;;;3.30;2.93;;;;;;;;;;5083476;28;20188;-53
2021/05/07 05:21:40;;;;;;;3.00;2.70;;;;;;;;;;5086565;28;20280;-53
2021/05/07 05:24:05;;;;;;;3.70;3.33;;;;;;;;;;5106315;22;20303;-84
2021/05/07 05:26:33;;;;;;;3.00;2.70;;;;;;;;;;5049889;28;20197;-84
2021/05/07 05:28:58;;;;;;;3.53;3.20;;;;;;;;;;5049847;28;20182;-84
2021/05/07 05:31:26;;;;;;;3.97;3.03;;;;;;;;;;5057480;28;20204;-84
2021/05/07 05:33:51;;;;;;;3.50;3.00;;;;;;;;;;5030446;28;20188;-85
2021/05/07 05:36:18;;;;;;;3.03;2.47;;;;;;;;;;5035737;28;20583;-84
2021/05/07 05:38:43;;;;;;;2.90;2.60;;;;;;;;;;5042658;28;20186;-85
2021/05/07 05:41:09;;;;;;;3.10;2.57;;;;;;;;;;5027215;28;20218;-85
2021/05/07 05:43:34;;;;;;;2.87;2.67;;;;;;;;;;5039888;28;20277;-86
2021/05/07 05:46:00;;;;;;;3.93;2.80;;;;;;;;;;5031773;28;20198;-85
2021/05/07 05:48:25;;;;;;;3.70;3.03;;;;;;;;;;5038048;28;20175;-83
2021/05/07 05:50:51;;;;;;;3.40;3.10;;;;;;;;;;5040828;28;20231;-84
2021/05/07 05:53:16;;;;;;;3.83;3.00;;;;;;;;;;5041944;28;20767;-83
2021/05/07 05:55:44;;;;;;;3.43;3.13;;;;;;;;;;5034649;28;20174;-83
2021/05/07 05:58:09;;;;;;;4.77;4.30;;;;;;;;;;5035086;28;20190;-84
2021/05/07 06:00:37;;;;;;;3.20;2.90;;;;;;;;;;5045001;28;20194;-84
2021/05/07 06:03:03;;;;;;;4.10;3.40;;;;;;;;;;5047258;28;20208;-82
2021/05/07 06:05:33;;;;;;;3.40;3.10;;;;;;;;;;5039208;28;20650;-82
2021/05/07 06:08:00;;;;;;;3.73;3.33;;;;;;;;;;5042298;28;20210;-82
2021/05/07 06:10:25;;;;;;;4.43;3.97;;;;;;;;;;5041738;28;20583;-82
2021/05/07 06:12:50;;;;;;;4.27;3.83;;;;;;;;;;5044227;28;20190;-82
2021/05/07 06:15:19;;;;;;;4.23;3.83;;;;;;;;;;5030533;28;20282;-82
2021/05/07 06:17:45;;;;;;;4.27;3.63;;;;;;;;;;5032101;28;20568;-82
2021/05/07 06:20:11;;;;;;;5.17;4.33;;;;;;;;;;5049095;28;20186;-82
2021/05/07 06:22:36;;;;;;;5.87;4.63;;;;;;;;;;5049624;28;20213;-81
2021/05/07 06:25:05;;;;;;;5.30;4.50;;;;;;;;;;5049121;28;20264;-81
2021/05/07 06:27:31;;;;;;;4.07;3.67;;;;;;;;;;5046378;28;20255;-81
2021/05/07 06:29:56;;;;;;;5.93;4.73;;;;;;;;;;5045266;28;20535;-80
2021/05/07 06:32:21;;;;;;;5.17;4.43;;;;;;;;;;5038214;28;20939;-80
2021/05/07 06:34:46;;;;;;;5.73;4.90;;;;;;;;;;5035913;28;20254;-81
2021/05/07 06:37:11;;;;;;;5.10;4.50;;;;;;;;;;5040991;28;20193;-81
2021/05/07 06:39:37;;;;;;;9.03;5.80;;;;;;;;;;5048399;28;20181;-81
2021/05/07 06:42:02;;;;;;;8.03;6.90;;;;;;;;;;5044033;28;20743;-81
2021/05/07 06:44:28;;;;;;;7.53;6.73;;;;;;;;;;5047529;28;20704;-81
2021/05/07 06:46:54;;;;;;;9.83;6.70;;;;;;;;;;5044743;28;20634;-80
2021/05/07 06:49:19;;;;;;;8.37;7.40;;;;;;;;;;5045587;28;20546;-81
2021/05/07 06:51:45;;;;;;;11.47;9.40;;;;;;;;;;5043458;28;20197;-82
2021/05/07 06:54:11;;;;;;;9.90;8.90;;;;;;;;;;5048413;28;20699;-81
2021/05/07 06:56:36;;;;;;;9.67;8.50;;;;;;;;;;5049226;28;20178;-80
2021/05/07 06:59:01;;;;;;;10.80;9.50;;;;;;;;;;5040474;28;20702;-81
2021/05/07 07:01:27;;;;;;;9.47;8.20;;;;;;;;;;5046320;28;20213;-82
2021/05/07 07:03:54;;;;;;;9.50;7.73;;;;;;;;;;5047230;28;20174;-82
2021/05/07 07:06:19;;;;;;;10.07;7.47;;;;;;;;;;5027939;28;20205;-82
2021/05/07 07:08:45;;;;;;;8.27;6.80;;;;;;;;;;5030413;28;20182;-82
2021/05/07 07:11:11;;;;;;;8.83;7.07;;;;;;;;;;5044412;28;20196;-81
2021/05/07 07:13:38;;;;;;;9.83;7.43;;;;;;;;;;5044275;28;20177;-81
2021/05/07 07:16:04;;;;;;;13.20;7.40;;;;;;;;;;5044624;28;20231;-82
2021/05/07 07:18:29;;;;;;;8.90;7.83;;;;;;;;;;5046536;28;20185;-84
2021/05/07 07:20:54;;;;;;;8.60;7.70;;;;;;;;;;5038949;28;20179;-79
2021/05/07 07:23:19;;;;;;;8.37;7.10;;;;;;;;;;5047761;28;20228;-81
2021/05/07 07:25:44;;;;;;;7.83;6.80;;;;;;;;;;5046005;28;21180;-80
2021/05/07 07:28:11;;;;;;;7.70;6.93;;;;;;;;;;5045062;28;20358;-80
2021/05/07 07:30:38;;;;;;;8.10;6.50;;;;;;;;;;5042802;28;20179;-80
2021/05/07 07:33:04;;;;;;;8.63;6.83;;;;;;;;;;5043192;28;20198;-80
2021/05/07 07:35:29;;;;;;;7.97;7.17;;;;;;;;;;5023939;28;20178;-80
2021/05/07 07:37:54;;;;;;;8.40;7.60;;;;;;;;;;5037460;28;20630;-80
2021/05/07 07:40:20;;;;;;;9.20;8.30;;;;;;;;;;5042352;28;20209;-80
2021/05/07 07:42:45;;;;;;;8.20;7.40;;;;;;;;;;5035500;28;20214;-78
2021/05/07 07:45:11;;;;;;;10.53;8.53;;;;;;;;;;5039787;28;20181;-79
2021/05/07 07:47:38;;;;;;;11.07;9.87;;;;;;;;;;5041302;28;20876;-80
2021/05/07 07:50:05;;;;;;;10.23;9.13;;;;;;;;;;5043177;28;20192;-80
2021/05/07 07:52:32;;;;;;;10.40;9.30;;;;;;;;;;5036179;28;20202;-81
2021/05/07 07:54:57;;;;;;;11.20;10.10;;;;;;;;;;5043507;28;20178;-79
2021/05/07 07:57:22;;;;;;;10.27;9.17;;;;;;;;;;5046417;28;20185;-81
2021/05/07 07:59:47;;;;;;;9.50;8.52;;;;;;;;;;5046585;28;20181;-81
2021/05/07 08:02:15;;;;;;;9.83;8.83;;;;;;;;;;5044954;28;20197;-80
2021/05/07 08:04:40;;;;;;;9.40;8.50;;;;;;;;;;5038021;28;20205;-80
2021/05/07 08:07:05;;;;;;;9.30;8.40;;;;;;;;;;5033064;28;20201;-80
2021/05/07 08:09:30;;;;;;;10.10;9.03;;;;;;;;;;5046939;28;20185;-79
2021/05/07 08:11:56;;;;;;;10.57;8.90;;;;;;;;;;5039291;28;20217;-80
2021/05/07 08:14:21;;;;;;;10.82;8.88;;;;;;;;;;5042451;28;20263;-81
2021/05/07 08:16:46;;;;;;;10.67;8.60;;;;;;;;;;5047433;28;20194;-81
2021/05/07 08:19:11;;;;;;;9.03;8.13;;;;;;;;;;5026965;28;20297;-80
2021/05/07 08:21:36;;;;;;;9.93;8.17;;;;;;;;;;5040998;28;20198;-79
2021/05/07 08:24:02;;;;;;;9.07;7.90;;;;;;;;;;5045610;28;20194;-81
2021/05/07 08:26:27;;;;;;;9.10;8.20;;;;;;;;;;5040745;28;20635;-80
2021/05/07 08:28:52;;;;;;;8.97;8.17;;;;;;;;;;5035336;28;20658;-80
2021/05/07 08:31:17;;;;;;;8.83;7.93;;;;;;;;;;5045021;28;20598;-79
2021/05/07 08:33:45;;;;;;;8.87;7.97;;;;;;;;;;5043398;28;20202;-81
2021/05/07 08:36:10;;;;;;;9.10;7.77;;;;;;;;;;5045784;28;20267;-82
2021/05/07 08:38:35;;;;;;;7.67;6.90;;;;;;;;;;5026129;28;20646;-83
2021/05/07 08:41:01;;;;;;;8.03;7.20;;;;;;;;;;5037046;28;20185;-81
2021/05/07 08:43:27;;;;;;;8.63;7.73;;;;;;;;;;5047626;28;20202;-82
2021/05/07 08:45:52;;;;;;;7.97;7.17;;;;;;;;;;5046758;28;20170;-83
2021/05/07 08:48:17;;;;;;;7.90;7.10;;;;;;;;;;5043496;28;20178;-81
2021/05/07 08:50:49;;;;;;;7.00;5.20;;;;;;;;;;5028551;28;20221;-81
2021/05/07 08:53:15;;;;;;;5.77;4.67;;;;;;;;;;5041036;28;20296;-81
2021/05/07 08:55:41;;;;;;;6.27;5.50;;;;;;;;;;5045973;28;20187;-80
2021/05/07 08:58:08;;;;;;;6.30;5.60;;;;;;;;;;5040866;28;20292;-80
2021/05/07 09:00:34;;;;;;;6.10;5.40;;;;;;;;;;5042885;28;20339;-77
2021/05/07 09:03:05;;;;;;;5.30;4.80;;;;;;;;;;5046555;28;20803;-78
2021/05/07 09:05:32;;;;;;;5.20;4.70;;;;;;;;;;5043843;28;20186;-77
2021/05/07 09:07:57;;;;;;;5.20;4.63;;;;;;;;;;5048572;28;20206;-78
2021/05/07 09:10:32;;;;;;;5.90;5.30;;;;;;;;;;5043618;28;20174;-77
2021/05/07 09:12:58;;;;;;;4.70;3.87;;;;;;;;;;5043989;28;20202;-76
2021/05/07 09:15:23;;;;;;;4.63;4.13;;;;;;;;;;5049654;28;20174;-77
2021/05/07 09:17:59;;;;;;;4.40;4.00;;;;;;;;;;5032385;28;20244;-74
2021/05/07 09:20:34;;;;;;;4.97;4.30;;;;;;;;;;5038115;28;20222;-76
2021/05/07 09:23:01;;;;;;;3.40;3.10;;;;;;;;;;5048796;28;20232;-76
2021/05/07 09:25:27;;;;;;;3.45;3.05;;;;;;;;;;5046468;28;20274;-77
2021/05/07 09:27:54;;;;;;;2.90;2.63;;;;;;;;;;5039858;28;20297;-75
2021/05/07 09:30:22;;;;;;;4.97;2.80;;;;;;;;;;5042941;28;20186;-76
2021/05/07 09:32:54;;;;;;;4.63;3.40;;;;;;;;;;5036314;28;20690;-77
2021/05/07 09:35:19;;;;;;;4.32;2.95;;;;;;;;;;5041692;28;20192;-76
2021/05/07 09:37:45;;;;;;;3.15;2.85;;;;;;;;;;5053351;28;20185;-76
2021/05/07 09:40:15;;;;;;;3.30;3.00;;;;;;;;;;5046843;28;20650;-74
2021/05/07 09:42:40;;;;;;;3.55;3.00;;;;;;;;;;5041040;28;20221;-76
2021/05/07 09:45:17;;;;;;;6.45;2.90;;;;;;;;;;5031803;28;20196;-76
2021/05/07 09:47:42;;;;;;;3.58;2.83;;;;;;;;;;5048591;28;20190;-76
2021/05/07 09:50:07;;;;;;;2.78;2.58;;;;;;;;;;5045382;28;20715;-75
2021/05/07 09:52:33;;;;;;;2.60;2.40;;;;;;;;;;5039458;28;20285;-75
2021/05/07 09:54:58;;;;;;;3.87;2.80;;;;;;;;;;5030809;28;20181;-75
2021/05/07 09:57:24;;;;;;;3.30;2.37;;;;;;;;;;5046110;28;20272;-76
2021/05/07 09:59:49;;;;;;;3.33;2.83;;;;;;;;;;5046050;28;20182;-76
2021/05/07 10:02:17;;;;;;;3.20;2.90;;;;;;;;;;5047967;28;20832;-75
2021/05/07 10:04:43;;;;;;;4.57;3.30;;;;;;;;;;5041205;28;20681;-75
2021/05/07 10:07:08;;;;;;;4.80;3.55;;;;;;;;;;5044055;28;20205;-75
2021/05/07 10:09:36;;;;;;;4.67;3.23;;;;;;;;;;5041775;28;20210;-76
2021/05/07 10:12:04;;;;;;;3.90;3.50;;;;;;;;;;5046319;28;20197;-76
2021/05/07 10:14:30;;;;;;;3.10;2.80;;;;;;;;;;5046926;28;20674;-76
2021/05/07 10:16:57;;;;;;;3.57;3.10;;;;;;;;;;5045179;28;20186;-75
2021/05/07 10:19:23;;;;;;;2.63;2.43;;;;;;;;;;5049063;28;20189;-75
2021/05/07 10:21:48;;;;;;;3.47;2.30;;;;;;;;;;5040675;28;20567;-76
2021/05/07 10:24:19;;;;;;;3.60;2.90;;;;;;;;;;5044051;28;20240;-77
2021/05/07 10:26:48;;;;;;;3.77;2.73;;;;;;;;;;5044182;28;20233;-75
2021/05/07 10:29:20;;;;;;;4.43;3.13;;;;;;;;;;5042465;28;20178;-78
2021/05/07 10:31:49;;;;;;;3.53;2.50;;;;;;;;;;5044514;28;20194;-76
2021/05/07 10:34:14;;;;;;;4.90;2.90;;;;;;;;;;5038177;28;20215;-80
2021/05/07 10:36:39;;;;;;;2.77;2.57;;;;;;;;;;5014925;28;20277;-80
2021/05/07 10:39:14;;;;;;;2.90;2.27;;;;;;;;;;5046696;28;20276;-79
2021/05/07 10:41:42;;;;;;;3.43;2.07;;;;;;;;;;5040683;28;20216;-78
2021/05/07 10:44:08;;;;;;;3.93;2.70;;;;;;;;;;5044205;28;20189;-80
2021/05/07 10:46:33;;;;;;;4.93;2.37;;;;;;;;;;5047421;28;20233;-80
2021/05/07 10:48:59;;;;;;;3.10;2.30;;;;;;;;;;5046759;28;20228;-80
2021/05/07 10:51:25;;;;;;;2.80;2.60;;;;;;;;;;5041883;28;20205;-80
2021/05/07 10:53:51;;;;;;;4.17;2.63;;;;;;;;;;5028779;28;20190;-78
2021/05/07 10:56:23;;;;;;;2.60;2.40;;;;;;;;;;5048635;28;20185;-80
2021/05/07 10:58:49;;;;;;;3.17;2.30;;;;;;;;;;5055180;28;20232;-80
2021/05/07 11:01:15;;;;;;;3.40;2.87;;;;;;;;;;5041362;28;20182;-79
2021/05/07 11:03:41;;;;;;;3.00;2.53;;;;;;;;;;5049311;28;20260;-80
2021/05/07 11:06:06;;;;;;;2.97;2.63;;;;;;;;;;5038479;28;20187;-80
2021/05/07 11:08:32;;;;;;;3.50;2.97;;;;;;;;;;5037532;28;20733;-78
2021/05/07 11:10:57;;;;;;;3.47;2.93;;;;;;;;;;5026341;28;20232;-78
2021/05/07 11:13:22;;;;;;;4.37;2.70;;;;;;;;;;5043417;28;20202;-79
2021/05/07 11:15:57;;;;;;;4.03;2.50;;;;;;;;;;5046781;28;20638;-76
2021/05/07 11:18:27;;;;;;;2.50;2.30;;;;;;;;;;5025318;28;20188;-77
2021/05/07 11:20:53;;;;;;;2.40;2.20;;;;;;;;;;5033486;28;20187;-77
2021/05/07 11:23:19;;;;;;;2.30;2.10;;;;;;;;;;5029929;28;20232;-77
2021/05/07 11:25:44;;;;;;;1.60;1.50;;;;;;;;;;5026808;28;20682;-78
2021/05/07 11:28:20;;;;;;;1.93;1.70;;;;;;;;;;5028466;28;20210;-77
2021/05/07 11:30:48;;;;;;;2.80;2.10;;;;;;;;;;5013124;28;20186;-77
2021/05/07 11:33:16;;;;;;;3.27;1.70;;;;;;;;;;5033254;28;20307;-77
2021/05/07 11:35:43;;;;;;;1.77;1.67;;;;;;;;;;5013622;28;20298;-76
2021/05/07 11:38:08;;;;;;;1.90;1.70;;;;;;;;;;5027878;28;20362;-77
2021/05/07 11:40:34;;;;;;;3.13;1.73;;;;;;;;;;5031738;28;20186;-77
2021/05/07 11:43:06;;;;;;;1.77;1.63;;;;;;;;;;5030452;28;20273;-79
2021/05/07 11:45:31;;;;;;;2.40;2.20;;;;;;;;;;5030945;28;20198;-78
2021/05/07 11:47:56;;;;;;;2.07;1.70;;;;;;;;;;5027406;28;20648;-78
2021/05/07 11:50:22;;;;;;;2.17;1.80;;;;;;;;;;5034038;28;20182;-77
2021/05/07 11:52:50;;;;;;;3.10;1.93;;;;;;;;;;5029945;28;20202;-78
2021/05/07 11:55:18;;;;;;;2.07;1.70;;;;;;;;;;5043421;28;20722;-78
2021/05/07 11:57:44;;;;;;;2.40;1.77;;;;;;;;;;5040657;28;20677;-76
2021/05/07 13:24:02;;;;;;;1.60;1.50;;;;;;;;;;5048087;28;20232;-72
2021/05/07 13:26:29;;;;;;;2.40;1.60;;;;;;;;;;5035618;28;20182;-72
2021/05/07 13:28:59;;;;;;;1.53;1.43;;;;;;;;;;5051989;28;20271;-72
2021/05/07 13:31:24;;;;;;;1.40;1.30;;;;;;;;;;5040533;28;20187;-76
2021/05/07 13:33:50;;;;;;;2.60;1.70;;;;;;;;;;5040821;28;20193;-72
2021/05/07 13:36:17;;;;;;;1.67;1.57;;;;;;;;;;5042930;28;20528;-72
2021/05/07 13:38:43;;;;;;;2.47;1.30;;;;;;;;;;5036553;28;20182;-72
2021/05/07 13:48:48;;;;;;;2.33;1.40;;;;;;;;;;5036846;28;20324;-60
2021/05/07 13:51:13;;;;;;;1.73;1.63;;;;;;;;;;5039284;28;20197;-59
2021/05/07 13:53:38;;;;;;;2.00;1.60;;;;;;;;;;5026821;28;20206;-62
2021/05/07 13:56:03;;;;;;;2.10;1.70;;;;;;;;;;5032089;28;20175;-64
2021/05/07 13:58:29;;;;;;;1.77;1.60;;;;;;;;;;5059556;23;20225;-74
2021/05/07 14:00:57;;;;;;;1.90;1.70;;;;;;;;;;5062848;28;20193;-73
2021/05/07 14:03:22;;;;;;;2.00;1.60;;;;;;;;;;5049199;28;20239;-74
2021/05/07 14:05:47;;;;;;;2.90;1.87;;;;;;;;;;5070717;28;20173;-72
2021/05/07 14:08:12;;;;;;;2.00;1.90;;;;;;;;;;5066037;28;20860;-73
2021/05/07 14:10:38;;;;;;;1.63;1.53;;;;;;;;;;5065039;28;20291;-74
2021/05/07 14:13:08;;;;;;;1.70;1.60;;;;;;;;;;5069194;28;20209;-74
2021/05/07 14:15:34;;;;;;;2.10;1.50;;;;;;;;;;5053172;28;20200;-74
2021/05/07 14:18:03;;;;;;;2.23;1.80;;;;;;;;;;5066852;28;20289;-73
2021/05/07 14:20:30;;;;;;;2.13;1.93;;;;;;;;;;5069536;28;20177;-74
2021/05/07 14:22:55;;;;;;;3.33;1.90;;;;;;;;;;5071668;28;20177;-73
2021/05/07 14:25:23;;;;;;;1.90;1.80;;;;;;;;;;5041436;28;20272;-74
2021/05/07 14:27:48;;;;;;;6.33;2.50;;;;;;;;;;5069969;28;20680;-72
2021/05/07 14:30:15;;;;;;;2.67;2.47;;;;;;;;;;5068670;28;20211;-75
2021/05/07 14:32:45;;;;;;;2.50;1.90;;;;;;;;;;5063355;28;20185;-75
2021/05/07 14:35:11;;;;;;;2.40;2.17;;;;;;;;;;5077621;22;20231;-58
2021/05/07 14:37:36;;;;;;;1.83;1.73;;;;;;;;;;5066513;28;20189;-61
2021/05/07 14:40:06;;;;;;;3.27;2.30;;;;;;;;;;5061542;28;20193;-59
2021/05/07 14:42:33;;;;;;;3.03;2.03;;;;;;;;;;5058536;28;20200;-57
2021/05/07 14:45:01;;;;;;;2.20;2.00;;;;;;;;;;5059131;28;20193;-58
2021/05/07 14:47:28;;;;;;;2.50;2.30;;;;;;;;;;5063593;28;20446;-59
2021/05/07 14:49:53;;;;;;;2.07;1.80;;;;;;;;;;5066660;28;20190;-56
2021/05/07 14:52:20;;;;;;;2.13;1.93;;;;;;;;;;5066686;28;20190;-59
2021/05/07 14:54:48;;;;;;;6.00;2.33;;;;;;;;;;5064070;28;20616;-60
2021/05/07 14:57:16;;;;;;;3.00;2.20;;;;;;;;;;5047161;28;20322;-59
2021/05/07 14:59:41;;;;;;;2.23;2.00;;;;;;;;;;5065458;28;20451;-58
2021/05/07 15:02:07;;;;;;;2.87;2.10;;;;;;;;;;5061813;28;20201;-61
2021/05/07 15:04:34;;;;;;;3.80;2.00;;;;;;;;;;5066964;28;20264;-58
2021/05/07 15:07:04;;;;;;;3.33;1.90;;;;;;;;;;5067560;28;20215;-59
2021/05/07 15:09:32;;;;;;;2.37;2.10;;;;;;;;;;5057951;28;20178;-58
2021/05/07 15:11:57;;;;;;;2.20;2.00;;;;;;;;;;5062276;28;20204;-59
2021/05/07 15:14:22;;;;;;;2.80;2.00;;;;;;;;;;5065909;28;20181;-60
2021/05/07 15:16:50;;;;;;;4.90;2.13;;;;;;;;;;5065092;28;20181;-59
2021/05/07 15:19:17;;;;;;;2.23;1.67;;;;;;;;;;5067130;28;20233;-60
2021/05/07 15:21:42;;;;;;;3.87;2.00;;;;;;;;;;5064797;28;20201;-61
2021/05/07 15:24:08;;;;;;;3.03;1.33;;;;;;;;;;5063009;28;20272;-59
2021/05/07 15:26:33;;;;;;;2.03;1.70;;;;;;;;;;5066362;28;20197;-56
2021/05/07 15:29:01;;;;;;;1.40;1.30;;;;;;;;;;5064143;28;20641;-59
2021/05/07 15:31:26;;;;;;;1.90;1.40;;;;;;;;;;5061927;28;20203;-57
2021/05/07 15:33:51;;;;;;;1.73;1.27;;;;;;;;;;5065609;28;20177;-58
2021/05/07 15:36:16;;;;;;;3.10;1.63;;;;;;;;;;5067079;28;20180;-56
2021/05/07 15:38:41;;;;;;;1.37;1.27;;;;;;;;;;5058268;28;20189;-60
2021/05/07 15:41:09;;;;;;;1.63;1.43;;;;;;;;;;5064063;28;20193;-62
2021/05/07 15:43:36;;;;;;;1.63;1.40;;;;;;;;;;5061059;28;20180;-59
2021/05/07 15:46:06;;;;;;;1.73;1.63;;;;;;;;;;5064972;28;20180;-61
2021/05/07 15:48:37;;;;;;;2.07;1.40;;;;;;;;;;5047070;28;20282;-58
2021/05/07 15:51:02;;;;;;;2.13;1.50;;;;;;;;;;5063757;28;20591;-57
2021/05/07 15:53:29;;;;;;;1.37;1.27;;;;;;;;;;5046995;28;20177;-59
2021/05/07 15:55:57;;;;;;;2.63;1.30;;;;;;;;;;5064066;28;20185;-60
2021/05/07 15:58:22;;;;;;;1.97;1.30;;;;;;;;;;5063746;28;20264;-58
2021/05/07 16:00:47;;;;;;;2.53;1.47;;;;;;;;;;5063888;28;20668;-60
2021/05/07 16:03:12;;;;;;;3.33;1.43;;;;;;;;;;5066314;28;20193;-58
2021/05/07 16:05:37;;;;;;;3.03;1.43;;;;;;;;;;5065681;28;20177;-57